Ivinhema, Brazil
Current Conditions -  °F | °C
As of 7:15 AM on Monday 22 Dec 2014 (Local Time) from SBPP Reporting Station
Light Rain Light Rain  
Wind Chill: 66°   Ceiling: Unl
Heat Index: 66°   Visibility: 0.06mi
Dew Point: 66°   Wind: 16mph
Humidity: 100%   Direction: 180°S
Pressure: 29.85"   Gusts: NA
Location:  22.3°S, 53.82°W
Report Text: SBPP 221015Z 18014KT 0100 -RA VV/// 19/19 Q1011
Loading
Personal Weather Stations






























Interactive Weather Map New forecast layout! Learn more

10-Day Weather Forecast

Advertisements
Track Severe Weather on mobile